logo tempoitalia

Diretta Meteo Tehran-Mehrabad, Iranmercoledì 12 agosto ore 05:30

Mappa
Sereno 27 °C Sereno 24 Ore: T.min 26 T.max 38
Ponente Nord Km/h 0 Punto di rugiada: 8 °C Umidità: 30% Visibilità: 10 Km
Il sole sorge alle: 06:20 Il sole tramonta alle: 19:58
12 Agosto 2020 05:30 tempo osservato: Sereno Sereno 27 30 1008 vento: Nord N 0
12 Agosto 2020 05:00 tempo osservato: Sereno Sereno 27 30 1008 vento: Nord N 7.4
12 Agosto 2020 04:00 tempo osservato: Sereno Sereno 28 28 1008 vento: Nord N 0
12 Agosto 2020 03:30 tempo osservato: Sereno Sereno 28 26 1008 vento: Nord O 7.4
12 Agosto 2020 03:00 tempo osservato: Sereno Sereno 29 25 1008 vento: Nord N/NO 7.4
12 Agosto 2020 02:30 tempo osservato: Sereno Sereno 29 23 1007 vento: Nord N/NO 7.4
12 Agosto 2020 02:00 tempo osservato: Sereno Sereno 31 19 1007 vento: Nord N 11.1
12 Agosto 2020 01:30 tempo osservato: Sereno Sereno 32 17 1007 vento: Nord N/NE 11.1
12 Agosto 2020 00:30 tempo osservato: Sereno Sereno 32 18 1008 vento: Nord N/NE 7.4
12 Agosto 2020 00:00 tempo osservato: Sereno Sereno 32 19 1007 vento: Nord NE 7.4
11 Agosto 2020 23:30 tempo osservato: Sereno Sereno 33 16 1007 vento: Nord NE 7.4
11 Agosto 2020 23:00 tempo osservato: Sereno Sereno 35 13 1007 vento: Nord E/NE 7.4
11 Agosto 2020 22:30 tempo osservato: Sereno Sereno 33 16 1007 vento: Nord NE 7.4
11 Agosto 2020 22:00 tempo osservato: Sereno Sereno 34 15 1008 vento: Nord NE 7.4
11 Agosto 2020 21:30 tempo osservato: Sereno Sereno 36 11 1007 vento: Nord E/SE 11.1
11 Agosto 2020 21:00 tempo osservato: Sereno Sereno 36 12 1007 vento: Nord E/SE 14.8
11 Agosto 2020 20:30 tempo osservato: Sereno Sereno 36 11 1007 vento: Nord E/SE 11.1
11 Agosto 2020 20:00 tempo osservato: Sereno Sereno 37 11 1007 vento: Nord SE 11.1
11 Agosto 2020 19:30 tempo osservato: Sereno Sereno 37 11 1007 vento: Nord SE 11.1
11 Agosto 2020 19:00 tempo osservato: Sereno Sereno 38 11 1007 vento: Nord E/SE 14.8
11 Agosto 2020 18:30 tempo osservato: Sereno Sereno 38 10 1007 vento: Nord E/SE 11.1
11 Agosto 2020 18:00 tempo osservato: Sereno Sereno 38 11 1007 vento: Nord SE 18.5
11 Agosto 2020 17:30 tempo osservato: Sereno Sereno 38 10 1007 vento: Nord SE 18.5
11 Agosto 2020 17:00 tempo osservato: Sereno Sereno 38 11 1008 vento: Nord SE 18.5
11 Agosto 2020 16:30 tempo osservato: Sereno Sereno 37 12 1008 vento: Nord SE 18.5
11 Agosto 2020 16:00 tempo osservato: Sereno Sereno 37 11 1008 vento: Nord SE 14.8
11 Agosto 2020 15:30 tempo osservato: Sereno Sereno 37 12 1008 vento: Nord SE 18.5
11 Agosto 2020 15:00 tempo osservato: Sereno Sereno 37 12 1009 vento: Nord E/SE 11.1
11 Agosto 2020 14:30 tempo osservato: Sereno Sereno 37 12 1009 vento: Nord E/SE 11.1
11 Agosto 2020 14:00 tempo osservato: Sereno Sereno 36 14 1009 vento: Nord E 14.8
11 Agosto 2020 13:30 tempo osservato: Sereno Sereno 35 15 1010 vento: Nord E/SE 11.1
11 Agosto 2020 13:00 tempo osservato: Sereno Sereno 35 16 1010 vento: Nord SE 11.1
11 Agosto 2020 12:30 tempo osservato: Sereno Sereno 34 14 1010 vento: Nord SE 18.5
11 Agosto 2020 12:00 tempo osservato: Sereno Sereno 34 15 1010 vento: Nord S/SE 14.8
11 Agosto 2020 11:30 tempo osservato: Sereno Sereno 34 18 1011 vento: Nord S/SO 11.1
11 Agosto 2020 11:00 tempo osservato: Sereno Sereno 32 21 1011 vento: Nord O/SO 11.1
11 Agosto 2020 10:52 tempo osservato: Sereno Sereno 32 21 1011 vento: Nord O/SO 11.1
11 Agosto 2020 10:30 tempo osservato: Sereno Sereno 32 22 1011 vento: Nord SO 14.8
11 Agosto 2020 10:00 tempo osservato: Sereno Sereno 32 19 1011 vento: Nord SO 14.8
11 Agosto 2020 09:30 tempo osservato: Sereno Sereno 32 19 1011 vento: Nord S/SO 7.4
11 Agosto 2020 09:00 tempo osservato: Sereno Sereno 31 22 1010 vento: Nord N 7.4
11 Agosto 2020 08:30 tempo osservato: Sereno Sereno 30 23 1010 vento: Nord O/NO 7.4
11 Agosto 2020 08:00 tempo osservato: Sereno Sereno 29 26 1010 vento: Nord NO 7.4
11 Agosto 2020 07:30 tempo osservato: Sereno Sereno 27 28 1010 vento: Nord O 7.4
11 Agosto 2020 07:00 tempo osservato: Sereno Sereno 27 24 1010 vento: Nord O/NO 11.1
11 Agosto 2020 06:30 tempo osservato: Sereno Sereno 26 34 1010 vento: Nord NO 7.4